Orbital elements of FENGYUN 1C DEB
| Launched | 9 May 1999 |
| Flight ended | – |
| Launch site | Taiyuan Space Center, PRC |
| Owner | People's Republic of China |
| NORAD ID | 30633 |
| Date fetched |
Epoch osculation |
Inc. [°] |
Ecc. | RA asc node [hr] |
Arg Peri. [°] |
Mean anom [°] |
Mean motion [rev/day] |
Abs. mag |
| Date fetched |
Epoch osculation |
Inc. [°] |
Ecc. | RA asc node [hr] |
Arg Peri. [°] |
Mean anom [°] |
Mean motion [rev/day] |
Abs. mag |
| 2026 May 08 17:57 | 2026 May 05 02:13:13 | 98.4111 | 0.01287 | 22.9850 | 213.3069 | 308.2616 | 14.04793 | – |
| 2026 May 07 17:58 | 2026 May 05 02:13:13 | 98.4111 | 0.01287 | 22.9850 | 213.3069 | 308.2616 | 14.04793 | – |
| 2026 May 06 17:57 | 2026 May 05 02:13:13 | 98.4111 | 0.01287 | 22.9850 | 213.3069 | 308.2616 | 14.04793 | – |
| 2026 May 05 17:57 | 2026 May 05 02:13:13 | 98.4111 | 0.01287 | 22.9850 | 213.3069 | 308.2616 | 14.04793 | – |
| 2026 May 04 17:57 | 2026 Apr 30 02:31:19 | 98.4124 | 0.01285 | 22.6766 | 227.6009 | 308.2616 | 14.04793 | – |
| 2026 May 03 17:57 | 2026 Apr 30 02:31:19 | 98.4124 | 0.01285 | 22.6766 | 227.6009 | 308.2616 | 14.04793 | – |
| 2026 May 02 17:57 | 2026 Apr 30 02:31:19 | 98.4124 | 0.01285 | 22.6766 | 227.6009 | 308.2616 | 14.04793 | – |
| 2026 May 01 17:56 | 2026 Apr 30 02:31:19 | 98.4124 | 0.01285 | 22.6766 | 227.6009 | 308.2616 | 14.04793 | – |
| 2026 Apr 30 17:56 | 2026 Apr 30 02:31:19 | 98.4124 | 0.01285 | 22.6766 | 227.6009 | 308.2616 | 14.04793 | – |
| 2026 Apr 29 17:57 | 2026 Apr 24 02:56:11 | 98.4133 | 0.01287 | 22.3066 | 244.7799 | 308.2616 | 14.04793 | – |
| 2026 Apr 28 17:56 | 2026 Apr 24 02:56:11 | 98.4133 | 0.01287 | 22.3066 | 244.7799 | 308.2616 | 14.04793 | – |
| 2026 Apr 27 17:58 | 2026 Apr 24 02:56:11 | 98.4133 | 0.01287 | 22.3066 | 244.7799 | 308.2616 | 14.04793 | – |
| 2026 Apr 26 17:58 | 2026 Apr 24 02:56:11 | 98.4133 | 0.01287 | 22.3066 | 244.7799 | 308.2616 | 14.04793 | – |
| 2026 Apr 25 17:58 | 2026 Apr 24 02:56:11 | 98.4133 | 0.01287 | 22.3066 | 244.7799 | 308.2616 | 14.04793 | – |
| 2026 Apr 24 17:59 | 2026 Apr 24 02:56:11 | 98.4133 | 0.01287 | 22.3066 | 244.7799 | 308.2616 | 14.04793 | – |
| 2026 Apr 23 17:57 | 2026 Apr 19 01:34:56 | 98.4133 | 0.01290 | 21.9939 | 259.2812 | 308.2616 | 14.04793 | – |
| 2026 Apr 22 17:57 | 2026 Apr 19 01:34:56 | 98.4133 | 0.01290 | 21.9939 | 259.2812 | 308.2616 | 14.04793 | – |
| 2026 Apr 21 17:57 | 2026 Apr 19 01:34:56 | 98.4133 | 0.01290 | 21.9939 | 259.2812 | 308.2616 | 14.04793 | – |
| 2026 Apr 20 17:57 | 2026 Apr 19 01:34:56 | 98.4133 | 0.01290 | 21.9939 | 259.2812 | 308.2616 | 14.04793 | – |
| 2026 Apr 19 17:58 | 2026 Apr 19 01:34:56 | 98.4133 | 0.01290 | 21.9939 | 259.2812 | 308.2616 | 14.04793 | – |
| 2026 Apr 18 17:56 | 2026 Apr 13 01:58:33 | 98.4139 | 0.01292 | 21.6238 | 276.4052 | 308.2616 | 14.04793 | – |
| 2026 Apr 16 17:57 | 2026 Apr 13 01:58:33 | 98.4139 | 0.01292 | 21.6238 | 276.4052 | 308.2616 | 14.04793 | – |
| 2026 Apr 14 17:57 | 2026 Apr 13 01:58:33 | 98.4139 | 0.01292 | 21.6238 | 276.4052 | 308.2616 | 14.04793 | – |
| 2026 Apr 13 17:57 | 2026 Apr 13 01:58:33 | 98.4139 | 0.01292 | 21.6238 | 276.4052 | 308.2616 | 14.04793 | – |
| 2026 Apr 12 17:57 | 2026 Apr 08 02:19:33 | 98.4148 | 0.01296 | 21.3155 | 290.6670 | 308.2616 | 14.04793 | – |
| 2026 Apr 11 17:57 | 2026 Apr 08 02:19:33 | 98.4148 | 0.01296 | 21.3155 | 290.6670 | 308.2616 | 14.04793 | – |